Flight Track Log - Related Links

Times and Time Zones

All times are in EDT time to prevent confusion due to time zone crossing. See the SWA2353 flight status page for this flight to view local times or setup timezone preferences in your user account.

Time Position Orientation Groundspeed Altitude Reporting Facility
EDT Latitude Longitude Course Direction KTS MPH feet Rate Location/Type
Tue 06:35:59 PM 39.8833 -75.2167 67° East 145 167 900  Level Philadelphia TRACON
Tue 06:36:53 PM 39.9000 -75.1667 67° East 195 224 2,500 2,474 Climbing Philadelphia TRACON
Tue 06:37:53 PM 39.9333 -75.1167 49° Northeast 211 243 5,600 2,900 Climbing Philadelphia TRACON
Tue 06:38:53 PM 39.9833 -75.1500 333° Northwest 307 353 8,300 2,095 Climbing Philadelphia TRACON
Tue 06:39:59 PM 40.0333 -75.2500 303° West 330 380 10,000 1,567 Climbing Philadelphia TRACON
Tue 06:41:53 PM 40.1522 -75.4472 308° West 375 432 13,000 1,500 Climbing New York Center
Tue 06:42:55 PM 40.2169 -75.5494 310° West 370 426 14,400 2,000 Climbing New York Center
Tue 06:43:53 PM 40.2778 -75.6408 311° West 370 426 17,000 1,462 Climbing New York Center
Tue 06:44:54 PM 40.3442 -75.7436 310° West 370 426 17,300 984 Climbing New York Center
Tue 06:45:55 PM 40.4186 -75.8581 311° West 370 426 19,000 1,388 Climbing New York Center
Tue 06:46:55 PM 40.4544 -75.9889 290° West 376 433 20,100 1,881 Climbing New York Center
Tue 06:47:53 PM 40.4778 -76.1244 283° West 376 433 22,700 2,420 Climbing New York Center
Tue 06:48:54 PM 40.4981 -76.2706 280° West 388 447 24,900 1,918 Climbing New York Center
Tue 06:49:55 PM 40.5242 -76.4256 283° West 407 468 26,600 1,750 Climbing New York Center
Tue 06:50:54 PM 40.5475 -76.5858 281° West 431 496 28,400 1,780 Climbing New York Center
Tue 06:51:53 PM 40.5897 -76.7453 289° West 446 513 30,100 1,765 Climbing New York Center
Tue 06:52:53 PM 40.6333 -76.9078 290° West 466 536 31,900 1,950 Climbing New York Center
Tue 06:53:53 PM 40.6581 -77.0742 281° West 466 536 34,000 1,041 Climbing New York Center
Tue 06:54:54 PM 40.6806 -77.2378 280° West 466 536 34,000  Level New York Center
Tue 06:55:55 PM 40.7028 -77.3986 280° West 455 524 34,000  Level New York Center
Tue 06:56:54 PM 40.7247 -77.5653 280° West 455 524 34,000 433 Level New York Center
Tue 06:59:09 PM 40.7722 -77.9264 280° West 453 521 35,400 615 Climbing Cleveland Center
Tue 07:00:09 PM 40.7925 -78.0900 279° West 453 521 36,000 450 Climbing Cleveland Center
Tue 07:01:09 PM 40.8128 -78.2567 279° West 458 527 36,300 900 Climbing Cleveland Center
Tue 07:02:09 PM 40.8347 -78.4261 280° West 467 537 37,800 1,200 Climbing Cleveland Center
Tue 07:03:09 PM 40.8611 -78.6119 281° West 467 537 38,700 1,100 Climbing Cleveland Center
Tue 07:04:09 PM 40.8828 -78.7817 280° West 467 537 40,000 650 Climbing Cleveland Center
Tue 07:05:09 PM 40.9019 -78.9514 279° West 467 537 40,000  Level Cleveland Center
Tue 07:06:09 PM 40.9228 -79.1156 280° West 462 532 40,000  Level Cleveland Center
Tue 07:07:09 PM 40.9414 -79.2775 279° West 462 532 40,000  Level Cleveland Center
Tue 07:08:09 PM 40.9600 -79.4419 279° West 462 532 40,000  Level Cleveland Center
Tue 07:09:09 PM 40.9803 -79.6067 279° West 462 532 40,000  Level Cleveland Center
Tue 07:10:09 PM 40.9983 -79.7717 278° West 462 532 40,000  Level Cleveland Center
Tue 07:11:09 PM 41.0158 -79.9336 278° West 462 532 40,000  Level Cleveland Center
Tue 07:12:09 PM 41.0333 -80.0958 278° West 462 532 40,000  Level Cleveland Center
Tue 07:13:09 PM 41.0528 -80.2636 279° West 462 532 40,000  Level Cleveland Center
Tue 07:14:09 PM 41.0697 -80.4261 278° West 462 532 40,000  Level Cleveland Center
Tue 07:15:09 PM 41.0867 -80.5914 278° West 462 532 40,000  Level Cleveland Center
Tue 07:16:09 PM 41.1053 -80.7594 278° West 462 532 40,000  Level Cleveland Center
Tue 07:17:09 PM 41.1194 -80.9250 277° West 462 532 40,000  Level Cleveland Center
Tue 07:18:09 PM 41.1353 -81.0931 277° West 462 532 40,000  Level Cleveland Center
Tue 07:19:09 PM 41.1511 -81.2586 277° West 462 532 40,000  Level Cleveland Center
Tue 07:20:09 PM 41.1711 -81.4217 279° West 462 532 40,000  Level Cleveland Center
Tue 07:21:09 PM 41.1883 -81.5875 278° West 462 532 40,000  Level Cleveland Center
Tue 07:22:09 PM 41.2036 -81.7533 277° West 462 532 40,000  Level Cleveland Center
Tue 07:23:09 PM 41.2206 -81.9219 278° West 462 532 40,000  Level Cleveland Center
Tue 07:24:09 PM 41.2331 -82.0853 276° West 462 532 40,000  Level Cleveland Center
Tue 07:25:09 PM 41.2456 -82.2400 276° West 469 540 40,000  Level Cleveland Center
Tue 07:26:09 PM 41.2594 -82.4061 276° West 464 534 40,000  Level Cleveland Center
Tue 07:27:09 PM 41.2753 -82.5917 277° West 464 534 40,000  Level Cleveland Center
Tue 07:28:09 PM 41.2889 -82.7553 276° West 464 534 40,000  Level Cleveland Center
Tue 07:29:09 PM 41.3044 -82.9244 277° West 464 534 40,000  Level Cleveland Center
Tue 07:30:09 PM 41.3194 -83.0908 277° West 464 534 40,000 -50 Level Cleveland Center
Tue 07:31:09 PM 41.3286 -83.2406 275° West 464 534 39,900 -550 Descending Cleveland Center
Tue 07:32:09 PM 41.3433 -83.4072 277° West 464 534 38,900 -1,000 Descending Cleveland Center
Tue 07:33:09 PM 41.3558 -83.5736 276° West 464 534 37,900 -950 Descending Cleveland Center
Tue 07:34:09 PM 41.3700 -83.7458 276° West 464 534 37,000 -900 Descending Cleveland Center
Tue 07:35:09 PM 41.3819 -83.9125 276° West 464 534 36,100 -950 Descending Cleveland Center
Tue 07:36:09 PM 41.3956 -84.0878 276° West 464 534 35,100 -900 Descending Cleveland Center
Tue 07:37:09 PM 41.3814 -84.2697 264° West 454 522 34,300 -1,073 Descending Cleveland Center
Tue 07:38:12 PM 41.3464 -84.4331 254° West 453 521 32,900 -1,152 Descending Chicago Center
Tue 07:39:14 PM 41.3272 -84.5939 261° West 445 512 31,900 -1,306 Descending Chicago Center
Tue 07:40:16 PM 41.3278 -84.7544 270° West 435 501 30,200 -912 Descending Chicago Center
Tue 07:41:19 PM 41.3514 -84.9081 282° West 424 488 30,000 -288 Descending Chicago Center
Tue 07:42:21 PM 41.3750 -85.0592 282° West 419 482 29,600 -1,113 Descending Chicago Center
Tue 07:43:23 PM 41.3983 -85.2081 282° West 411 473 27,700 -1,887 Descending Chicago Center
Tue 07:44:25 PM 41.4208 -85.3522 282° West 399 459 25,700 -1,839 Descending Chicago Center
Tue 07:45:27 PM 41.4467 -85.5192 282° West 381 438 23,900 -1,306 Descending Chicago Center
Tue 07:46:29 PM 41.4603 -85.6575 278° West 372 428 23,000 -1,306 Descending Chicago Center
Tue 07:47:31 PM 41.4719 -85.7942 277° West 371 427 21,200 -1,935 Descending Chicago Center
Tue 07:48:33 PM 41.4833 -85.9319 276° West 373 429 19,000 -2,129 Descending Chicago Center
Tue 07:49:35 PM 41.4953 -86.0650 277° West 367 422 16,800 -2,226 Descending Chicago Center
Tue 07:50:37 PM 41.5056 -86.1975 276° West 361 415 14,400 -2,371 Descending Chicago Center
Tue 07:51:39 PM 41.5097 -86.3311 272° West 361 415 11,900 -2,129 Descending Chicago Center
Tue 07:52:41 PM 41.5108 -86.4869 271° West 353 406 10,000 -919 Descending Chicago Center
Tue 07:53:43 PM 41.5125 -86.6128 271° West 342 394 10,000  Level Chicago Center
Tue 07:54:45 PM 41.5131 -86.7331 270° West 335 386 10,000 -48 Level Chicago Center
Tue 07:55:48 PM 41.5147 -86.8536 271° West 328 377 9,900 -864 Descending Chicago Center
Tue 07:56:50 PM 41.5158 -86.9800 271° West 291 335 8,200 -1,548 Descending Chicago Center
Tue 07:57:52 PM 41.5167 -87.0844 271° West 284 327 6,700 -1,065 Descending Chicago Center
Tue 07:58:54 PM 41.5150 -87.1878 269° West 281 323 6,000 -339 Descending Chicago Center
Tue 07:59:56 PM 41.5219 -87.2869 275° West 273 314 6,000 -726 Level Chicago Center
Tue 08:00:58 PM 41.5442 -87.3858 287° West 277 319 4,500 -968 Descending Chicago Center
Tue 08:02:00 PM 41.5694 -87.5011 286° West 275 316 4,000 -242 Descending Chicago Center
Tue 08:03:02 PM 41.5892 -87.5961 286° West 272 313 4,000 -532 Level Chicago Center
Tue 08:04:04 PM 41.6094 -87.6906 286° West 269 310 2,900 -726 Descending Chicago Center
Tue 08:05:06 PM 41.6286 -87.7847 285° West 268 308 2,500 -242 Descending Chicago Center
Tue 08:06:08 PM 41.6844 -87.8169 337° Northwest 238 274 2,400 -350 Descending Chicago Center
Tue 08:07:06 PM 41.7333 -87.8167 360° North 141 162 1,800 -584 Descending Chicago TRACON
Tue 08:08:01 PM 41.7500 -87.7833 56° Northeast 127 146 1,300 -545 Descending Chicago TRACON

Login

Don't have an account? Register now (free) for customized features, flight alerts, and more!